createdAt,value
2023-06-13T00:00:33.388Z,100265.63
2023-06-13T00:02:39.085Z,100269.38
2023-06-13T00:04:44.825Z,100266.16
2023-06-13T00:06:50.695Z,100264.89
2023-06-13T00:08:56.488Z,100261.75
2023-06-13T00:11:02.134Z,100256.73
2023-06-13T00:13:07.839Z,100254.23
2023-06-13T00:15:13.623Z,100251.59
2023-06-13T00:17:19.251Z,100245.38
2023-06-13T00:19:24.997Z,100241.66
2023-06-13T00:21:30.879Z,100245.46
2023-06-13T00:23:36.596Z,100251.79
2023-06-13T00:25:42.091Z,100251.98
2023-06-13T00:27:47.607Z,100247.7
2023-06-13T00:29:53.365Z,100256.47
2023-06-13T00:31:59.052Z,100258.55
2023-06-13T00:34:04.739Z,100263.51
2023-06-13T00:36:10.304Z,100264.36
2023-06-13T00:38:16.081Z,100252.16
2023-06-13T00:40:21.737Z,100250.74
2023-06-13T00:42:27.329Z,100247
2023-06-13T00:44:32.964Z,100246.38
2023-06-13T00:46:38.768Z,100243
2023-06-13T00:48:44.254Z,100242.45
2023-06-13T00:50:49.760Z,100243.3
2023-06-13T00:52:55.297Z,100246.36
2023-06-13T00:55:01.006Z,100239.67
2023-06-13T00:57:06.740Z,100235.28
2023-06-13T00:59:12.490Z,100229.48
2023-06-13T01:01:18.147Z,100227.5
2023-06-13T01:03:23.883Z,100222.98
2023-06-13T01:05:29.720Z,100222.67
2023-06-13T01:07:35.495Z,100222.94
2023-06-13T01:09:41.223Z,100221.66
2023-06-13T01:11:46.988Z,100223.09
2023-06-13T01:13:52.616Z,100216.78
2023-06-13T01:15:58.190Z,100219.71
2023-06-13T01:18:04.039Z,100225.55
2023-06-13T01:20:09.669Z,100238.63
2023-06-13T01:22:15.408Z,100248.27
2023-06-13T01:24:21.325Z,100250.01
2023-06-13T01:26:27.202Z,100231.88
2023-06-13T01:28:32.749Z,100215.91
2023-06-13T01:30:38.391Z,100216.23
2023-06-13T01:32:44.072Z,100219.65
2023-06-13T01:34:49.895Z,100220.87
2023-06-13T01:36:55.547Z,100220.72
2023-06-13T01:39:01.124Z,100219.09
2023-06-13T01:41:06.825Z,100213.25
2023-06-13T01:43:12.368Z,100214.48
2023-06-13T01:45:17.913Z,100215.3
2023-06-13T01:47:23.836Z,100220.09
2023-06-13T01:49:29.403Z,100220.75
2023-06-13T01:51:35.082Z,100226.84
2023-06-13T01:53:40.706Z,100222.59
2023-06-13T01:55:46.246Z,100219.58
2023-06-13T01:57:51.555Z,100214.36
2023-06-13T01:59:57.037Z,100212.28
2023-06-13T02:02:02.322Z,100209.73
2023-06-13T02:04:07.935Z,100213.87
2023-06-13T02:06:13.445Z,100217.67
2023-06-13T02:08:18.876Z,100220.53
2023-06-13T02:10:24.291Z,100224.69
2023-06-13T02:12:29.620Z,100223.34
2023-06-13T02:14:35.194Z,100232.78
2023-06-13T02:16:40.676Z,100232.88
2023-06-13T02:18:46.165Z,100233.16
2023-06-13T02:20:51.542Z,100225.33
2023-06-13T02:22:56.841Z,100227.78
2023-06-13T02:25:04.328Z,100223
2023-06-13T02:27:09.689Z,100228.72
2023-06-13T02:29:15.114Z,100228.89
2023-06-13T02:31:20.580Z,100224.97
2023-06-13T02:33:26.042Z,100221.73
2023-06-13T02:35:31.380Z,100222.02
2023-06-13T02:37:36.765Z,100216.63
2023-06-13T02:39:42.214Z,100214.52
2023-06-13T02:41:47.628Z,100211.95
2023-06-13T02:43:53.101Z,100218.58
2023-06-13T02:45:58.321Z,100225.18
2023-06-13T02:48:03.893Z,100224.82
2023-06-13T02:50:09.512Z,100222.92
2023-06-13T02:52:15.072Z,100222.79
2023-06-13T02:54:20.446Z,100222.66
2023-06-13T02:56:25.743Z,100220.27
2023-06-13T02:58:31.073Z,100224.65
2023-06-13T03:00:36.495Z,100219.36
2023-06-13T03:02:42.133Z,100215.63
2023-06-13T03:04:47.596Z,100212.3
2023-06-13T03:06:53.045Z,100211.06
2023-06-13T03:08:58.529Z,100210.14
2023-06-13T03:11:03.822Z,100212.64
2023-06-13T03:13:09.291Z,100216.1
2023-06-13T03:15:14.728Z,100218.13
2023-06-13T03:17:20.465Z,100218.09
2023-06-13T03:19:25.999Z,100222.13
2023-06-13T03:21:31.434Z,100227.33
2023-06-13T03:23:36.981Z,100228.38
2023-06-13T03:25:42.414Z,100227.47
2023-06-13T03:27:47.754Z,100225.45
2023-06-13T03:29:53.401Z,100226.91
2023-06-13T03:31:59.001Z,100227.88
2023-06-13T03:34:04.397Z,100227.8
2023-06-13T03:36:09.730Z,100234.96
2023-06-13T03:38:15.068Z,100236.22
2023-06-13T03:40:20.722Z,100236.24
2023-06-13T03:42:26.351Z,100239.08
2023-06-13T03:44:31.891Z,100233.36
2023-06-13T03:46:37.231Z,100229.13
2023-06-13T03:48:42.950Z,100226.98
2023-06-13T03:50:48.832Z,100218.83
2023-06-13T03:52:54.073Z,100218.81
2023-06-13T03:54:59.556Z,100208.93
2023-06-13T03:57:05.076Z,100212.83
2023-06-13T03:59:10.385Z,100210.08
2023-06-13T04:01:15.826Z,100210.4
2023-06-13T04:03:21.605Z,100208.54
2023-06-13T04:05:27.191Z,100209.16
2023-06-13T04:07:32.649Z,100209.2
2023-06-13T04:09:38.100Z,100212.98
2023-06-13T04:11:43.500Z,100217.11
2023-06-13T04:13:48.765Z,100220.57
2023-06-13T04:15:54.005Z,100211.95
2023-06-13T04:17:59.528Z,100212.43
2023-06-13T04:20:05.004Z,100215.56
2023-06-13T04:22:10.647Z,100212.13
2023-06-13T04:24:16.089Z,100219.16
2023-06-13T04:26:21.714Z,100221.8
2023-06-13T04:28:27.270Z,100220.5
2023-06-13T04:30:32.595Z,100218.47
2023-06-13T04:32:38.062Z,100224.8
2023-06-13T04:34:43.589Z,100224.6
2023-06-13T04:36:49.028Z,100221.52
2023-06-13T04:38:54.428Z,100222.83
2023-06-13T04:40:59.807Z,100219.64
2023-06-13T04:43:05.414Z,100220.4
2023-06-13T04:45:10.811Z,100222.66
2023-06-13T04:47:16.255Z,100218.52
2023-06-13T04:49:21.822Z,100216.8
2023-06-13T04:51:27.311Z,100211.48
2023-06-13T04:53:32.639Z,100214.33
2023-06-13T04:55:38.191Z,100213.77
2023-06-13T04:57:43.740Z,100211.42
2023-06-13T04:59:49.151Z,100210.02
2023-06-13T05:01:54.676Z,100207.5
2023-06-13T05:04:03.773Z,100206.95
2023-06-13T05:06:09.286Z,100210.59
2023-06-13T05:08:14.726Z,100216.97
2023-06-13T05:10:21.197Z,100206.53
2023-06-13T05:12:26.949Z,100206.11
2023-06-13T05:14:32.301Z,100216.19
2023-06-13T05:16:37.721Z,100215.11
2023-06-13T05:18:43.061Z,100214.78
2023-06-13T05:20:48.498Z,100207.12
2023-06-13T05:22:53.844Z,100220.75
2023-06-13T05:24:59.380Z,100201.58
2023-06-13T05:27:05.192Z,100204.09
2023-06-13T05:29:10.497Z,100205.91
2023-06-13T05:31:16.106Z,100205.52
2023-06-13T05:33:21.860Z,100201.8
2023-06-13T05:35:27.413Z,100200.96
2023-06-13T05:37:38.960Z,100200.77
2023-06-13T05:39:44.380Z,100208.05
2023-06-13T05:41:49.710Z,100208.8
2023-06-13T05:43:55.096Z,100211.97
2023-06-13T05:46:00.641Z,100215.38
2023-06-13T05:48:06.003Z,100217.58
2023-06-13T05:50:11.474Z,100216.17
2023-06-13T05:52:17.281Z,100219.8
2023-06-13T05:54:22.715Z,100212.48
2023-06-13T05:56:28.359Z,100211.89
2023-06-13T05:58:33.613Z,100210.67
2023-06-13T06:00:39.588Z,100219.47
2023-06-13T06:02:45.222Z,100212.14
2023-06-13T06:04:51.044Z,100217.19
2023-06-13T06:06:56.436Z,100217.7
2023-06-13T06:09:01.824Z,100212.33
2023-06-13T06:11:07.156Z,100212.64
2023-06-13T06:13:12.590Z,100210.63
2023-06-13T06:15:17.848Z,100216.52
2023-06-13T06:17:23.441Z,100214.57
2023-06-13T06:19:29.118Z,100207.39
2023-06-13T06:21:34.657Z,100206.53
2023-06-13T06:23:40.224Z,100213.02
2023-06-13T06:25:45.946Z,100205.09
2023-06-13T06:27:51.443Z,100203.56
2023-06-13T06:29:56.833Z,100199.36
2023-06-13T06:32:02.374Z,100202.22
2023-06-13T06:34:07.752Z,100198.33
2023-06-13T06:36:13.153Z,100192.08
2023-06-13T06:38:18.484Z,100195.92
2023-06-13T06:40:23.948Z,100194.79
2023-06-13T06:42:29.266Z,100191.8
2023-06-13T06:44:46.422Z,100189.06
2023-06-13T06:46:51.729Z,100192.27
2023-06-13T06:48:57.065Z,100191.97
2023-06-13T06:51:02.425Z,100192.91
2023-06-13T06:53:07.726Z,100182.82
2023-06-13T06:55:12.860Z,100190.78
2023-06-13T06:57:19.815Z,100187.05
2023-06-13T06:59:27.687Z,100185.8
2023-06-13T07:01:33.049Z,100186.7
2023-06-13T07:03:38.562Z,100182.16
2023-06-13T07:05:44.055Z,100179.97
2023-06-13T07:07:49.608Z,100180.48
2023-06-13T07:09:55.000Z,100178.22
2023-06-13T07:12:00.397Z,100175.95
2023-06-13T07:14:05.819Z,100178.81
2023-06-13T07:16:11.314Z,100179.14
2023-06-13T07:18:16.916Z,100169.6
2023-06-13T07:20:22.309Z,100174.25
2023-06-13T07:22:28.028Z,100180.58
2023-06-13T07:24:33.499Z,100179.88
2023-06-13T07:26:38.945Z,100181
2023-06-13T07:28:44.272Z,100182.83
2023-06-13T07:30:49.774Z,100189.1
2023-06-13T07:32:56.597Z,100184.17
2023-06-13T07:35:08.641Z,100190.67
2023-06-13T07:37:13.974Z,100191.79
2023-06-13T07:39:19.307Z,100187.81
2023-06-13T07:41:24.838Z,100188.41
2023-06-13T07:43:30.180Z,100188.7
2023-06-13T07:45:35.938Z,100206.23
2023-06-13T07:47:41.480Z,100187.55
2023-06-13T07:49:47.010Z,100178.77
2023-06-13T07:51:52.345Z,100176.56
2023-06-13T07:53:57.838Z,100177.51
2023-06-13T07:56:03.248Z,100175.02
2023-06-13T07:58:10.852Z,100175.95
2023-06-13T08:00:17.051Z,100169.62
2023-06-13T08:02:23.064Z,100179.32
2023-06-13T08:04:52.823Z,100177.99
2023-06-13T08:07:00.445Z,100172.91
2023-06-13T08:09:05.905Z,100180.59
2023-06-13T08:11:11.364Z,100175.13
2023-06-13T08:13:16.859Z,100176.34
2023-06-13T08:15:22.307Z,100175.23
2023-06-13T08:17:27.602Z,100168.8
2023-06-13T08:19:33.080Z,100163.97
2023-06-13T08:21:41.604Z,100168.94
2023-06-13T08:23:47.053Z,100165.36
2023-06-13T08:25:52.758Z,100166.39
2023-06-13T08:27:58.317Z,100158.39
2023-06-13T08:30:03.771Z,100151.85
2023-06-13T08:32:09.434Z,100155.27
2023-06-13T08:34:17.521Z,100158.36
2023-06-13T08:36:33.600Z,100154.88
2023-06-13T08:38:53.078Z,100152.55
2023-06-13T08:40:58.724Z,100154.13
2023-06-13T08:43:04.321Z,100154.56
2023-06-13T08:45:10.017Z,100165.91
2023-06-13T08:47:38.210Z,100159.72
2023-06-13T08:49:44.656Z,100165.98
2023-06-13T08:51:50.076Z,100174.06
2023-06-13T08:53:55.523Z,100168.42
2023-06-13T08:56:06.417Z,100169.88
2023-06-13T08:58:13.085Z,100172.2
2023-06-13T09:00:18.622Z,100172.38
2023-06-13T09:02:24.798Z,100176.84
2023-06-13T09:04:34.096Z,100168.15
2023-06-13T09:06:39.666Z,100162.25
2023-06-13T09:08:45.388Z,100174.49
2023-06-13T09:10:51.027Z,100177.2
2023-06-13T09:12:56.468Z,100166.22
2023-06-13T09:15:02.027Z,100168.15
2023-06-13T09:17:07.955Z,100166.09
2023-06-13T09:19:13.401Z,100168.29
2023-06-13T09:21:20.219Z,100172.84
2023-06-13T09:23:27.402Z,100158.77
2023-06-13T09:25:32.820Z,100165.16
2023-06-13T09:27:38.236Z,100163.06
2023-06-13T09:29:43.663Z,100162.47
2023-06-13T09:31:49.211Z,100163.84
2023-06-13T09:33:54.660Z,100161.28
2023-06-13T10:00:37.841Z,100160.34
2023-06-13T10:02:43.398Z,100162.83
2023-06-13T10:04:48.902Z,100158.7
2023-06-13T10:06:54.468Z,100158.14
2023-06-13T10:08:59.943Z,100160.2
2023-06-13T10:11:05.433Z,100154.91
2023-06-13T10:13:10.888Z,100148.84
2023-06-13T10:15:17.075Z,100162.05
2023-06-13T10:17:22.965Z,100152.44
2023-06-13T10:19:28.567Z,100158.67
2023-06-13T10:21:52.036Z,100157.44
2023-06-13T10:23:57.864Z,100159.23
2023-06-13T10:26:06.263Z,100156.8
2023-06-13T10:28:11.747Z,100147.06
2023-06-13T10:30:17.623Z,100145.56
2023-06-13T10:32:23.164Z,100147.38
2023-06-13T10:34:28.545Z,100157.09
2023-06-13T10:36:33.998Z,100149.95
2023-06-13T10:38:39.414Z,100154.33
2023-06-13T10:40:44.959Z,100142.14
2023-06-13T10:42:50.746Z,100141.97
2023-06-13T10:44:56.541Z,100149.33
2023-06-13T10:47:01.984Z,100144.02
2023-06-13T10:49:07.327Z,100143.56
2023-06-13T10:51:12.778Z,100137.45
2023-06-13T10:53:18.294Z,100134.71
2023-06-13T10:55:23.697Z,100133.58
2023-06-13T10:57:29.042Z,100136.58
2023-06-13T10:59:34.438Z,100131.06
2023-06-13T11:01:40.332Z,100131.91
2023-06-13T11:03:46.249Z,100122.34
2023-06-13T11:05:52.086Z,100134.23
2023-06-13T11:07:57.423Z,100131.28
2023-06-13T11:10:02.861Z,100126.22
2023-06-13T11:12:08.200Z,100133.36
2023-06-13T11:14:13.648Z,100136.39
2023-06-13T11:16:18.886Z,100123.29
2023-06-13T11:18:24.491Z,100125.41
2023-06-13T11:20:30.062Z,100135.5
2023-06-13T11:22:38.579Z,100126.23
2023-06-13T11:24:44.206Z,100126.92
2023-06-13T11:26:49.664Z,100124.89
2023-06-13T11:28:55.184Z,100123.95
2023-06-13T11:31:00.673Z,100123.16
2023-06-13T11:33:06.297Z,100120.14
2023-06-13T11:35:12.123Z,100118.16
2023-06-13T11:37:17.484Z,100114.2
2023-06-13T11:39:23.128Z,100115.38
2023-06-13T11:41:28.814Z,100105.95
2023-06-13T11:43:34.211Z,100109.17
2023-06-13T11:45:39.719Z,100107.45
2023-06-13T11:47:45.315Z,100105.21
2023-06-13T11:49:50.827Z,100104.85
2023-06-13T11:51:56.169Z,100103.22
2023-06-13T11:54:01.721Z,100107.45
2023-06-13T11:56:07.262Z,100112.52
2023-06-13T11:58:12.710Z,100116.13
2023-06-13T12:00:19.201Z,100109.23
2023-06-13T12:02:25.654Z,100108.33
2023-06-13T12:04:31.803Z,100101.86
2023-06-13T12:06:37.337Z,100103.82
2023-06-13T12:08:42.729Z,100098.8
2023-06-13T12:10:48.222Z,100096.28
2023-06-13T12:12:53.743Z,100102.16
2023-06-13T12:14:59.140Z,100098.73
2023-06-13T12:17:04.815Z,100085.67
2023-06-13T12:19:10.509Z,100085.77
2023-06-13T12:21:16.025Z,100086.7
2023-06-13T12:23:24.271Z,100089.41
2023-06-13T12:25:29.800Z,100087.8
2023-06-13T12:27:35.229Z,100087.39
2023-06-13T12:31:46.543Z,100077.35
2023-06-13T12:33:52.180Z,100082.8
2023-06-13T12:35:57.542Z,100077.05
2023-06-13T12:38:03.284Z,100079.39
2023-06-13T12:40:08.623Z,100081.88
2023-06-13T12:42:13.931Z,100074.77
2023-06-13T12:44:19.221Z,100066.98
2023-06-13T12:46:24.889Z,100075.49
2023-06-13T12:48:30.117Z,100070.09
2023-06-13T12:50:35.327Z,100073.66
2023-06-13T12:52:40.583Z,100070.69
2023-06-13T12:54:45.929Z,100069.69
2023-06-13T12:56:51.528Z,100076.23
2023-06-13T12:58:57.520Z,100070.66
2023-06-13T13:01:03.192Z,100069.16
2023-06-13T13:03:08.690Z,100072.75
2023-06-13T13:05:28.830Z,100068.03
2023-06-13T13:07:34.468Z,100065.61
2023-06-13T13:09:40.345Z,100065.65
2023-06-13T13:11:46.101Z,100059.44
2023-06-13T13:13:51.822Z,100066.06
2023-06-13T13:15:57.792Z,100063.13
2023-06-13T13:18:03.558Z,100067.66
2023-06-13T13:20:09.313Z,100067.25
2023-06-13T13:22:14.996Z,100069.99
2023-06-13T13:24:20.661Z,100066.61
2023-06-13T13:26:26.403Z,100063.69
2023-06-13T13:28:32.161Z,100064.59
2023-06-13T13:30:52.492Z,100061.25
2023-06-13T13:33:07.334Z,100059.72
2023-06-13T13:35:13.240Z,100057.23
2023-06-13T13:37:19.188Z,100057.41
2023-06-13T13:39:25.272Z,100055.71
2023-06-13T13:41:31.201Z,100060.77
2023-06-13T13:43:36.860Z,100061.59
2023-06-13T13:45:42.424Z,100054.69
2023-06-13T13:47:48.217Z,100063
2023-06-13T13:49:54.208Z,100055.16
2023-06-13T13:51:59.734Z,100055.01
2023-06-13T13:54:05.288Z,100049.18
2023-06-13T13:56:11.054Z,100050.83
2023-06-13T13:58:16.771Z,100046.3
2023-06-13T14:00:22.584Z,100044.08
2023-06-13T14:02:28.201Z,100050.27
2023-06-13T14:04:34.020Z,100046.88
2023-06-13T14:06:39.654Z,100047.02
2023-06-13T14:08:45.309Z,100040.81
2023-06-13T14:10:50.946Z,100047.29
2023-06-13T14:12:56.493Z,100038.13
2023-06-13T14:15:02.345Z,100040.02
2023-06-13T14:17:08.088Z,100041.91
2023-06-13T14:19:13.750Z,100041.3
2023-06-13T14:21:19.428Z,100042.63
2023-06-13T14:23:25.052Z,100041.45
2023-06-13T14:25:30.825Z,100055.45
2023-06-13T14:27:36.426Z,100058.25
2023-06-13T14:29:42.164Z,100054.5
2023-06-13T14:31:47.838Z,100058.17
2023-06-13T14:33:53.666Z,100059.75
2023-06-13T14:35:59.316Z,100064.63
2023-06-13T14:38:05.049Z,100062.36
2023-06-13T14:40:10.619Z,100056.72
2023-06-13T14:42:16.235Z,100052.63
2023-06-13T14:44:21.719Z,100056.75
2023-06-13T14:46:27.580Z,100056.11
2023-06-13T14:48:33.340Z,100052.64
2023-06-13T14:50:38.934Z,100048.59
2023-06-13T14:52:44.574Z,100050.82
2023-06-13T14:54:50.208Z,100044.67
2023-06-13T14:56:55.855Z,100045.73
2023-06-13T14:59:01.607Z,100046.16
2023-06-13T15:01:07.457Z,100043.48
2023-06-13T15:03:13.103Z,100046.77
2023-06-13T15:05:19.040Z,100043.25
2023-06-13T15:07:25.210Z,100045.8
2023-06-13T15:09:33.263Z,100045.23
2023-06-13T15:11:39.046Z,100045.06
2023-06-13T15:13:44.711Z,100044.89
2023-06-13T15:15:50.479Z,100044.44
2023-06-13T15:17:56.255Z,100041.28
2023-06-13T15:20:02.018Z,100039.06
2023-06-13T15:22:07.597Z,100038.02
2023-06-13T15:24:13.449Z,100041.2
2023-06-13T15:26:19.292Z,100041.36
2023-06-13T15:28:26.599Z,100040.41
2023-06-13T15:30:32.118Z,100038.08
2023-06-13T15:32:39.502Z,100043.05
2023-06-13T15:34:46.587Z,100035.01
2023-06-13T15:36:52.236Z,100034.75
2023-06-13T15:38:57.798Z,100037.38
2023-06-13T15:41:03.422Z,100035.22
2023-06-13T15:43:09.113Z,100036.33
2023-06-13T15:45:14.741Z,100030.28
2023-06-13T15:47:20.562Z,100036.36
2023-06-13T15:49:26.415Z,100039.42
2023-06-13T15:51:32.261Z,100037.31
2023-06-13T15:53:38.007Z,100039.27
2023-06-13T15:55:43.654Z,100041.98
2023-06-13T15:57:51.200Z,100041.65
2023-06-13T15:59:56.792Z,100037.83
2023-06-13T16:02:02.742Z,100041.17
2023-06-13T16:04:08.438Z,100039.87
2023-06-13T16:06:14.232Z,100036.66
2023-06-13T16:08:19.671Z,100041.41
2023-06-13T16:10:25.238Z,100040.1
2023-06-13T16:12:30.968Z,100045.93
2023-06-13T16:14:36.512Z,100040.61
2023-06-13T16:16:42.161Z,100046.7
2023-06-13T16:18:48.079Z,100044.84
2023-06-13T16:20:53.710Z,100045.23
2023-06-13T16:22:59.189Z,100043.92
2023-06-13T16:25:04.873Z,100041.83
2023-06-13T16:27:10.482Z,100051.7
2023-06-13T16:29:16.047Z,100048.09
2023-06-13T16:31:21.902Z,100046.45
2023-06-13T16:33:27.840Z,100047.45
2023-06-13T16:35:33.416Z,100045.68
2023-06-13T16:37:39.118Z,100044.3
2023-06-13T16:39:45.112Z,100045.86
2023-06-13T16:41:50.607Z,100049.02
2023-06-13T16:43:56.151Z,100046.99
2023-06-13T16:46:01.970Z,100048.67
2023-06-13T16:48:07.823Z,100049.4
2023-06-13T16:50:14.392Z,100053.7
2023-06-13T16:52:20.380Z,100051.92
2023-06-13T16:54:26.014Z,100053.66
2023-06-13T16:56:31.417Z,100052.2
2023-06-13T16:58:37.009Z,100060.3
2023-06-13T17:00:42.752Z,100064.66
2023-06-13T17:02:48.502Z,100062.03
2023-06-13T17:04:54.143Z,100059.41
2023-06-13T17:06:59.783Z,100066.39
2023-06-13T17:09:05.444Z,100069.93
2023-06-13T17:11:10.979Z,100068.99
2023-06-13T17:13:16.806Z,100069.29
2023-06-13T17:15:22.463Z,100070.88
2023-06-13T17:17:27.957Z,100071.47
2023-06-13T17:19:33.663Z,100075.38
2023-06-13T17:21:39.248Z,100077.09
2023-06-13T17:23:44.972Z,100074.72
2023-06-13T17:25:50.722Z,100076.7
2023-06-13T17:27:56.341Z,100081.09
2023-06-13T17:30:02.213Z,100079.75
2023-06-13T17:32:08.058Z,100085.14
2023-06-13T17:34:14.060Z,100080.94
2023-06-13T17:36:19.688Z,100085.19
2023-06-13T17:38:25.379Z,100081.08
2023-06-13T17:40:31.049Z,100080.91
2023-06-13T17:42:36.570Z,100087.23
2023-06-13T17:44:41.994Z,100077.52
2023-06-13T17:46:47.368Z,100079.98
2023-06-13T17:48:53.299Z,100082.47
2023-06-13T17:50:58.732Z,100088.39
2023-06-13T17:53:04.134Z,100084.02
2023-06-13T17:55:09.502Z,100084.84
2023-06-13T17:57:15.077Z,100087
2023-06-13T17:59:20.681Z,100081.58
2023-06-13T18:01:26.688Z,100085.84
2023-06-13T18:03:32.405Z,100086.02
2023-06-13T18:05:38.152Z,100085.42
2023-06-13T18:07:43.702Z,100093.41
2023-06-13T18:09:49.241Z,100098.78
2023-06-13T18:11:55.671Z,100096.36
2023-06-13T18:14:07.905Z,100098.77
2023-06-13T18:16:13.970Z,100097.97
2023-06-13T18:18:19.608Z,100096.85
2023-06-13T18:20:25.248Z,100095.66
2023-06-13T18:22:30.730Z,100098.91
2023-06-13T18:24:36.214Z,100094.6
2023-06-13T18:26:41.574Z,100097.22
2023-06-13T18:28:46.954Z,100088.56
2023-06-13T18:30:52.388Z,100090.31
2023-06-13T18:32:57.846Z,100092.83
2023-06-13T18:35:03.318Z,100095.27
2023-06-13T18:37:08.891Z,100099.38
2023-06-13T18:39:14.732Z,100096.61
2023-06-13T18:41:20.571Z,100097.55
2023-06-13T18:43:26.337Z,100094.85
2023-06-13T18:45:32.088Z,100098.36
2023-06-13T18:47:38.439Z,100100.09
2023-06-13T18:49:44.085Z,100104.44
2023-06-13T18:51:49.935Z,100103.41
2023-06-13T18:53:55.255Z,100106.55
2023-06-13T18:56:00.835Z,100101.53
2023-06-13T18:58:06.299Z,100100.88
2023-06-13T19:00:11.577Z,100103.49
2023-06-13T19:02:17.071Z,100107.04
2023-06-13T19:04:22.483Z,100109.83
2023-06-13T19:06:28.137Z,100114.88
2023-06-13T19:08:33.858Z,100113.92
2023-06-13T19:10:39.323Z,100113.75
2023-06-13T19:12:44.852Z,100119.7
2023-06-13T19:14:50.321Z,100126.23
2023-06-13T19:16:55.722Z,100126.76
2023-06-13T19:19:01.163Z,100129.94
2023-06-13T19:21:06.613Z,100133.78
2023-06-13T19:23:11.932Z,100135.69
2023-06-13T19:25:17.890Z,100141.75
2023-06-13T19:27:23.563Z,100144.48
2023-06-13T19:29:28.972Z,100145.84
2023-06-13T19:31:34.517Z,100143.55
2023-06-13T19:33:40.085Z,100147.16
2023-06-13T19:35:45.525Z,100156.59
2023-06-13T19:37:51.155Z,100150.49
2023-06-13T19:39:56.597Z,100156.78
2023-06-13T19:42:02.035Z,100162.3
2023-06-13T19:44:07.577Z,100161.42
2023-06-13T19:46:13.012Z,100154.98
2023-06-13T19:48:18.505Z,100155.05
2023-06-13T19:50:24.018Z,100165.33
2023-06-13T19:52:29.536Z,100158.95
2023-06-13T19:54:35.015Z,100159.38
2023-06-13T19:56:40.592Z,100163.25
2023-06-13T19:58:46.103Z,100157.27
2023-06-13T20:00:51.479Z,100161.95
2023-06-13T20:02:57.106Z,100165.01
2023-06-13T20:05:02.780Z,100158.17
2023-06-13T20:07:08.171Z,100165.09
2023-06-13T20:09:13.562Z,100170.11
2023-06-13T20:11:19.009Z,100171.75
2023-06-13T20:13:36.989Z,100166.88
2023-06-13T20:15:42.328Z,100169.84
2023-06-13T20:17:47.679Z,100175.16
2023-06-13T20:19:53.158Z,100179.34
2023-06-13T20:21:58.827Z,100176.69
2023-06-13T20:24:04.599Z,100180.54
2023-06-13T20:26:10.096Z,100181.3
2023-06-13T20:28:15.678Z,100184.47
2023-06-13T20:30:21.214Z,100186.22
2023-06-13T20:32:27.010Z,100190.06
2023-06-13T20:34:32.511Z,100189.26
2023-06-13T20:36:37.946Z,100190.09
2023-06-13T20:38:43.464Z,100188.78
2023-06-13T20:40:48.860Z,100191.63
2023-06-13T20:42:54.304Z,100192.72
2023-06-13T20:44:59.741Z,100195.65
2023-06-13T20:47:05.321Z,100197.5
2023-06-13T20:49:10.870Z,100197.38
2023-06-13T20:51:17.690Z,100202.13
2023-06-13T20:53:23.087Z,100206.5
2023-06-13T20:55:28.726Z,100209.56
2023-06-13T20:57:36.928Z,100212.95
2023-06-13T20:59:43.289Z,100208.06
2023-06-13T21:01:48.942Z,100215.06
2023-06-13T21:03:54.487Z,100216.78
2023-06-13T21:06:00.149Z,100222.45
2023-06-13T21:08:06.283Z,100219.11
2023-06-13T21:10:11.782Z,100220.41
2023-06-13T21:12:17.528Z,100210.06
2023-06-13T21:14:23.023Z,100217.23
2023-06-13T21:16:28.488Z,100218.06
2023-06-13T21:18:33.992Z,100217.93
2023-06-13T21:20:39.427Z,100224.25
2023-06-13T21:22:44.882Z,100220.86
2023-06-13T21:24:50.410Z,100226.72
2023-06-13T21:26:55.865Z,100224.4
2023-06-13T21:29:01.519Z,100225.08
2023-06-13T21:31:07.091Z,100228.52
2023-06-13T21:33:12.680Z,100228.59
2023-06-13T21:35:18.226Z,100231.95
2023-06-13T21:37:23.576Z,100233.44
2023-06-13T21:39:29.206Z,100235.13
2023-06-13T21:41:34.757Z,100233.14
2023-06-13T21:43:40.300Z,100229.05
2023-06-13T21:45:45.861Z,100230.56
2023-06-13T21:47:51.160Z,100233.66
2023-06-13T21:49:56.717Z,100228.94
2023-06-13T21:52:02.134Z,100234.27
2023-06-13T21:54:08.732Z,100229.2
2023-06-13T21:56:14.202Z,100229.38
2023-06-13T21:58:19.611Z,100232.7
2023-06-13T22:00:25.458Z,100232.13
2023-06-13T22:02:30.921Z,100233.52
2023-06-13T22:04:36.365Z,100231.47
2023-06-13T22:06:41.929Z,100227.69
2023-06-13T22:08:47.328Z,100235.11
2023-06-13T22:10:52.831Z,100233.05
2023-06-13T22:12:58.210Z,100234.64
2023-06-13T22:15:03.758Z,100234.68
2023-06-13T22:17:09.204Z,100236.19
2023-06-13T22:19:14.589Z,100234.2
2023-06-13T22:21:20.077Z,100234.76
2023-06-13T22:23:25.557Z,100237.2
2023-06-13T22:25:31.159Z,100237.5
2023-06-13T22:27:36.609Z,100236.05
2023-06-13T22:29:42.175Z,100241.77
2023-06-13T22:31:47.592Z,100239.72
2023-06-13T22:33:53.276Z,100241.44
2023-06-13T22:35:58.984Z,100237.23
2023-06-13T22:38:04.521Z,100234.51
2023-06-13T22:40:10.160Z,100233.59
2023-06-13T22:42:15.716Z,100232.1
2023-06-13T22:44:21.136Z,100230.8
2023-06-13T22:46:26.494Z,100227.54
2023-06-13T22:48:32.027Z,100230.47
2023-06-13T22:50:37.557Z,100233.98
2023-06-13T22:52:43.011Z,100238.45
2023-06-13T22:54:48.672Z,100239.03
2023-06-13T22:56:54.136Z,100237.42
2023-06-13T22:58:59.534Z,100237.98
2023-06-13T23:01:05.035Z,100232.13
2023-06-13T23:03:10.672Z,100233.56
2023-06-13T23:05:16.106Z,100235.34
2023-06-13T23:07:21.399Z,100240.13
2023-06-13T23:09:26.880Z,100240.89
2023-06-13T23:11:32.379Z,100239.63
2023-06-13T23:13:37.831Z,100244.04
2023-06-13T23:15:43.375Z,100241.41
2023-06-13T23:17:49.067Z,100244.48
2023-06-13T23:19:54.937Z,100239.2
2023-06-13T23:22:00.508Z,100243.97
2023-06-13T23:24:06.006Z,100243.2
2023-06-13T23:26:11.492Z,100248.56
2023-06-13T23:28:16.924Z,100239.91
2023-06-13T23:30:22.477Z,100239.29
2023-06-13T23:32:28.380Z,100242.58
2023-06-13T23:34:33.796Z,100241.17
2023-06-13T23:36:39.320Z,100240.04
2023-06-13T23:38:45.318Z,100239.73
2023-06-13T23:40:51.005Z,100229.39
2023-06-13T23:42:56.551Z,100229.66
2023-06-13T23:45:01.990Z,100229.05
2023-06-13T23:47:07.578Z,100228.18
2023-06-13T23:49:13.275Z,100230.42
2023-06-13T23:51:19.028Z,100229.41
2023-06-13T23:53:24.679Z,100231.32
2023-06-13T23:55:30.420Z,100242.48
2023-06-13T23:57:35.853Z,100237.34
2023-06-13T23:59:41.408Z,100237.25
